Orlando, Florida
Traffic Map
Current Weather Conditions
Orlando, Florida
Clear
Clear
27°
Feels Like: 30°
Wind Chill: 27° Ceiling: Unl
Heat Index: 30° Visibility: 10mi
Dew Point: 24° Wind: 5mph
Humidity: 82% Direction: 200° (SSW)
Pressure: 30.02in Gusts: 0mph
Raw Report DataKORL 030353Z AUTO 20004KT 10SM CLR 27/24 A3002 RMK AO2 SLP166 T02720239
Traffic Incident Summary
Active as of:
Severity:
Category:
InformationThere was an issue retrieving the traffic information for this location. Please try a different location or try again shortly.
Advertisements
Track Severe Weather on mobile